createdAt,value
2023-05-07T00:02:11.609Z,98544.38
2023-05-07T00:04:56.814Z,98517.34
2023-05-07T00:07:42.562Z,98545.16
2023-05-07T00:10:28.305Z,98540.34
2023-05-07T00:13:13.783Z,98551.00
2023-05-07T00:15:59.447Z,98548.09
2023-05-07T00:18:44.707Z,98544.16
2023-05-07T00:21:30.419Z,98537.81
2023-05-07T00:24:15.843Z,98527.91
2023-05-07T00:27:01.922Z,98544.03
2023-05-07T00:29:47.192Z,98543.56
2023-05-07T00:32:32.555Z,98535.66
2023-05-07T00:35:18.092Z,98541.38
2023-05-07T00:38:03.453Z,98536.84
2023-05-07T00:40:48.975Z,98505.56
2023-05-07T00:43:34.227Z,98531.88
2023-05-07T00:46:21.625Z,98533.47
2023-05-07T00:49:07.812Z,98475.47
2023-05-07T00:51:53.011Z,98533.44
2023-05-07T00:54:38.753Z,98532.91
2023-05-07T00:57:25.297Z,98467.50
2023-05-07T01:00:11.474Z,98526.47
2023-05-07T01:02:57.116Z,98533.03
2023-05-07T01:05:44.738Z,98518.13
2023-05-07T01:08:31.387Z,98535.22
2023-05-07T01:11:18.560Z,98533.16
2023-05-07T01:14:05.373Z,98531.06
2023-05-07T01:16:51.285Z,98529.72
2023-05-07T01:19:38.338Z,98524.22
2023-05-07T01:22:35.130Z,98528.31
2023-05-07T01:25:20.505Z,98525.19
2023-05-07T01:28:09.777Z,98530.81
2023-05-07T01:31:02.035Z,98509.16
2023-05-07T01:33:49.722Z,98501.19
2023-05-07T01:36:39.531Z,98530.78
2023-05-07T01:39:26.756Z,98538.66
2023-05-07T01:42:12.846Z,98540.06
2023-05-07T01:44:58.205Z,98527.28
2023-05-07T01:47:44.722Z,98550.47
2023-05-07T01:50:32.550Z,98553.50
2023-05-07T01:53:18.264Z,98543.44
2023-05-07T01:56:04.063Z,98517.34
2023-05-07T01:58:50.688Z,98549.25
2023-05-07T02:01:35.887Z,98557.50
2023-05-07T02:04:21.329Z,98548.81
2023-05-07T02:07:06.857Z,98543.59
2023-05-07T02:09:52.689Z,98545.19
2023-05-07T02:12:38.634Z,98547.34
2023-05-07T02:15:24.242Z,98537.03
2023-05-07T02:18:10.518Z,98483.28
2023-05-07T02:20:56.765Z,98447.22
2023-05-07T02:23:42.267Z,98534.06
2023-05-07T02:26:27.463Z,98534.38
2023-05-07T02:29:13.053Z,98532.94
2023-05-07T02:31:59.517Z,98539.81
2023-05-07T02:34:44.704Z,98542.22
2023-05-07T02:37:30.277Z,98538.16
2023-05-07T02:40:15.753Z,98549.63
2023-05-07T02:43:00.856Z,98535.13
2023-05-07T02:45:46.525Z,98534.28
2023-05-07T02:48:33.163Z,98537.97
2023-05-07T02:51:23.994Z,98487.47
2023-05-07T02:54:10.915Z,98544.31
2023-05-07T02:56:56.340Z,98529.03
2023-05-07T02:59:42.208Z,98533.66
2023-05-07T03:02:27.754Z,98502.97
2023-05-07T03:05:13.148Z,98537.34
2023-05-07T03:07:58.627Z,98531.88
2023-05-07T03:10:44.191Z,98532.69
2023-05-07T03:13:29.482Z,98510.72
2023-05-07T03:16:15.020Z,98537.03
2023-05-07T03:19:01.095Z,98539.53
2023-05-07T03:21:47.919Z,98539.19
2023-05-07T03:24:33.513Z,98542.72
2023-05-07T03:27:18.787Z,98532.06
2023-05-07T03:30:05.178Z,98513.00
2023-05-07T03:32:50.627Z,98543.13
2023-05-07T03:35:35.975Z,98540.88
2023-05-07T03:38:21.488Z,98538.97
2023-05-07T03:41:07.222Z,98540.47
2023-05-07T03:43:52.861Z,98529.69
2023-05-07T03:46:38.042Z,98531.91
2023-05-07T03:49:23.715Z,98496.06
2023-05-07T03:52:09.353Z,98548.50
2023-05-07T03:54:54.750Z,98554.94
2023-05-07T03:57:40.591Z,98549.81
2023-05-07T04:00:25.778Z,98559.66
2023-05-07T04:03:11.237Z,98567.22
2023-05-07T04:05:56.805Z,98560.53
2023-05-07T04:08:42.603Z,98565.78
2023-05-07T04:11:27.889Z,98561.72
2023-05-07T04:14:13.538Z,98559.44
2023-05-07T04:16:59.992Z,98568.63
2023-05-07T04:19:46.100Z,98565.19
2023-05-07T04:22:31.220Z,98570.28
2023-05-07T04:25:18.612Z,98556.81
2023-05-07T04:28:04.430Z,98582.06
2023-05-07T04:30:49.781Z,98581.59
2023-05-07T04:33:35.341Z,98584.19
2023-05-07T04:36:21.250Z,98582.47
2023-05-07T04:39:16.483Z,98585.06
2023-05-07T04:42:04.552Z,98579.09
2023-05-07T04:44:54.514Z,98575.19
2023-05-07T04:47:41.794Z,98526.13
2023-05-07T04:50:27.201Z,98582.06
2023-05-07T04:53:17.393Z,98572.59
2023-05-07T04:56:02.920Z,98579.84
2023-05-07T04:58:58.096Z,98592.31
2023-05-07T05:01:43.418Z,98590.31
2023-05-07T05:04:29.020Z,98593.06
2023-05-07T05:07:14.882Z,98599.78
2023-05-07T05:10:00.619Z,98608.66
2023-05-07T05:12:46.317Z,98610.38
2023-05-07T05:15:33.720Z,98613.28
2023-05-07T05:18:19.961Z,98621.88
2023-05-07T05:21:05.551Z,98627.75
2023-05-07T05:23:52.134Z,98632.53
2023-05-07T05:26:40.409Z,98630.53
2023-05-07T05:29:26.206Z,98628.94
2023-05-07T05:32:11.600Z,98509.28
2023-05-07T05:34:57.528Z,98585.25
2023-05-07T05:37:43.524Z,98629.53
2023-05-07T05:40:29.063Z,98636.56
2023-05-07T05:43:15.526Z,98564.06
2023-05-07T05:46:03.089Z,98623.81
2023-05-07T05:48:49.078Z,98640.16
2023-05-07T05:51:34.792Z,98647.09
2023-05-07T05:54:20.357Z,98608.50
2023-05-07T05:57:06.942Z,98650.13
2023-05-07T05:59:52.558Z,98644.22
2023-05-07T06:02:38.193Z,98651.13
2023-05-07T06:05:26.101Z,98600.06
2023-05-07T06:08:14.206Z,98633.88
2023-05-07T06:10:59.621Z,98661.50
2023-05-07T06:13:45.532Z,98659.34
2023-05-07T06:16:30.659Z,98660.81
2023-05-07T06:19:16.167Z,98657.38
2023-05-07T06:22:01.761Z,98657.69
2023-05-07T06:24:48.365Z,98659.84
2023-05-07T06:27:33.980Z,98666.44
2023-05-07T06:30:19.574Z,98666.28
2023-05-07T06:33:05.748Z,98643.94
2023-05-07T06:35:51.323Z,98665.25
2023-05-07T06:38:36.638Z,98661.66
2023-05-07T06:41:21.772Z,98670.03
2023-05-07T06:44:09.660Z,98674.31
2023-05-07T06:47:02.994Z,98670.84
2023-05-07T06:49:48.295Z,98680.41
2023-05-07T06:53:01.572Z,98679.06
2023-05-07T06:55:46.922Z,98649.50
2023-05-07T06:58:33.710Z,98677.25
2023-05-07T07:01:19.554Z,98675.97
2023-05-07T07:04:05.249Z,98672.34
2023-05-07T07:06:53.198Z,98677.09
2023-05-07T07:09:38.660Z,98671.00
2023-05-07T07:12:26.093Z,98664.44
2023-05-07T07:15:11.580Z,98678.06
2023-05-07T07:17:57.605Z,98674.63
2023-05-07T07:20:43.758Z,98681.03
2023-05-07T07:23:28.915Z,98683.84
2023-05-07T07:26:14.446Z,98667.25
2023-05-07T07:28:59.663Z,98693.53
2023-05-07T07:31:45.323Z,98690.91
2023-05-07T07:34:31.649Z,98698.13
2023-05-07T07:37:17.162Z,98689.44
2023-05-07T07:40:02.688Z,98693.03
2023-05-07T07:42:47.783Z,98696.66
2023-05-07T07:45:34.988Z,98690.09
2023-05-07T07:48:20.978Z,98692.53
2023-05-07T07:51:06.531Z,98691.72
2023-05-07T07:53:51.763Z,98692.69
2023-05-07T07:56:38.219Z,98696.16
2023-05-07T07:59:25.116Z,98688.78
2023-05-07T08:02:10.542Z,98684.00
2023-05-07T08:04:55.959Z,98693.50
2023-05-07T08:07:42.091Z,98689.25
2023-05-07T08:10:28.099Z,98698.94
2023-05-07T08:13:20.097Z,98703.41
2023-05-07T08:16:05.999Z,98695.16
2023-05-07T08:18:52.652Z,98699.75
2023-05-07T08:21:40.558Z,98698.13
2023-05-07T08:24:27.372Z,98694.03
2023-05-07T08:27:12.837Z,98690.38
2023-05-07T08:30:00.693Z,98676.28
2023-05-07T08:32:46.342Z,98703.88
2023-05-07T08:35:31.743Z,98702.75
2023-05-07T08:38:16.835Z,98702.06
2023-05-07T08:41:02.578Z,98701.41
2023-05-07T08:43:51.474Z,98709.47
2023-05-07T08:46:38.269Z,98717.19
2023-05-07T08:49:23.575Z,98719.84
2023-05-07T08:52:10.401Z,98721.78
2023-05-07T08:54:57.497Z,98710.94
2023-05-07T08:57:43.725Z,98720.78
2023-05-07T09:00:30.053Z,98720.63
2023-05-07T09:03:17.166Z,98724.91
2023-05-07T09:06:06.200Z,98723.88
2023-05-07T09:08:53.641Z,98726.69
2023-05-07T09:11:40.270Z,98727.88
2023-05-07T09:14:25.976Z,98675.13
2023-05-07T09:17:11.179Z,98680.69
2023-05-07T09:19:56.849Z,98724.56
2023-05-07T09:22:42.454Z,98733.13
2023-05-07T09:25:35.978Z,98733.44
2023-05-07T09:28:26.906Z,98732.94
2023-05-07T09:31:13.121Z,98726.38
2023-05-07T09:33:58.608Z,98732.94
2023-05-07T09:36:47.925Z,98730.94
2023-05-07T09:39:47.378Z,98676.28
2023-05-07T09:42:35.570Z,98733.78
2023-05-07T09:45:27.154Z,98728.66
2023-05-07T09:48:17.333Z,98728.81
2023-05-07T09:51:06.224Z,98731.41
2023-05-07T09:53:53.953Z,98726.00
2023-05-07T09:56:40.570Z,98732.53
2023-05-07T09:59:29.923Z,98694.94
2023-05-07T10:02:19.064Z,98707.41
2023-05-07T10:05:07.994Z,98731.56
2023-05-07T10:07:54.064Z,98678.38
2023-05-07T10:10:41.410Z,98730.59
2023-05-07T10:13:30.118Z,98727.16
2023-05-07T10:16:18.636Z,98728.09
2023-05-07T10:19:08.320Z,98648.75
2023-05-07T10:22:01.004Z,98709.22
2023-05-07T10:24:53.197Z,98739.13
2023-05-07T10:27:39.720Z,98722.03
2023-05-07T10:31:00.836Z,98724.16
2023-05-07T10:33:52.160Z,98724.88
2023-05-07T10:36:40.119Z,98722.50
2023-05-07T10:39:26.141Z,98726.78
2023-05-07T10:42:13.153Z,98730.28
2023-05-07T10:45:15.543Z,98734.97
2023-05-07T10:48:25.065Z,98730.38
2023-05-07T10:51:21.750Z,98744.91
2023-05-07T10:54:11.209Z,98732.44
2023-05-07T10:57:35.218Z,98721.88
2023-05-07T11:00:38.031Z,98730.28
2023-05-07T11:03:28.698Z,98733.00
2023-05-07T11:06:18.832Z,98734.16
2023-05-07T11:09:15.464Z,98728.03
2023-05-07T11:12:10.881Z,98735.38
2023-05-07T11:15:07.705Z,98735.69
2023-05-07T11:17:57.456Z,98731.91
2023-05-07T11:20:52.940Z,98743.06
2023-05-07T11:23:57.819Z,98704.78
2023-05-07T11:26:52.002Z,98743.09
2023-05-07T11:29:39.524Z,98737.34
2023-05-07T11:32:31.273Z,98747.91
2023-05-07T11:35:18.376Z,98745.50
2023-05-07T11:38:06.308Z,98747.00
2023-05-07T11:40:59.063Z,98730.41
2023-05-07T11:44:00.917Z,98747.63
2023-05-07T11:46:46.307Z,98744.25
2023-05-07T11:49:32.037Z,98732.06
2023-05-07T11:52:19.022Z,98721.84
2023-05-07T11:55:04.802Z,98738.59
2023-05-07T11:57:49.956Z,98739.56
2023-05-07T12:00:37.872Z,98734.38
2023-05-07T12:03:23.131Z,98740.78
2023-05-07T12:06:08.899Z,98719.22
2023-05-07T12:08:54.243Z,98736.44
2023-05-07T12:11:39.377Z,98744.31
2023-05-07T12:14:28.448Z,98744.22
2023-05-07T12:17:15.812Z,98739.88
2023-05-07T12:20:01.865Z,98745.41
2023-05-07T12:22:48.852Z,98717.13
2023-05-07T12:25:38.966Z,98744.22
2023-05-07T12:28:24.409Z,98746.75
2023-05-07T12:31:09.965Z,98753.75
2023-05-07T12:33:55.599Z,98739.66
2023-05-07T12:36:41.510Z,98729.88
2023-05-07T12:39:26.865Z,98740.19
2023-05-07T12:42:17.507Z,98711.38
2023-05-07T12:45:11.479Z,98740.53
2023-05-07T12:47:57.530Z,98692.19
2023-05-07T12:50:42.691Z,98752.50
2023-05-07T12:53:29.054Z,98732.63
2023-05-07T12:56:16.927Z,98742.22
2023-05-07T12:59:02.430Z,98745.25
2023-05-07T13:01:48.056Z,98746.88
2023-05-07T13:04:33.785Z,98714.72
2023-05-07T13:07:19.722Z,98745.34
2023-05-07T13:10:05.787Z,98741.59
2023-05-07T13:12:51.789Z,98743.03
2023-05-07T13:15:36.912Z,98732.75
2023-05-07T13:18:22.356Z,98732.66
2023-05-07T13:21:07.758Z,98740.94
2023-05-07T13:23:53.188Z,98732.09
2023-05-07T13:26:38.675Z,98724.53
2023-05-07T13:29:23.955Z,98737.50
2023-05-07T13:32:09.147Z,98738.88
2023-05-07T13:34:54.981Z,98740.13
2023-05-07T13:37:39.990Z,98738.31
2023-05-07T13:40:25.668Z,98702.31
2023-05-07T13:43:11.119Z,98736.41
2023-05-07T13:45:56.569Z,98717.72
2023-05-07T13:48:41.873Z,98735.94
2023-05-07T13:51:27.455Z,98732.28
2023-05-07T13:54:12.943Z,98733.94
2023-05-07T13:56:58.105Z,98730.84
2023-05-07T13:59:43.635Z,98724.47
2023-05-07T14:02:28.870Z,98677.75
2023-05-07T14:05:14.253Z,98722.19
2023-05-07T14:08:00.982Z,98717.63
2023-05-07T14:10:46.814Z,98717.56
2023-05-07T14:13:32.210Z,98730.31
2023-05-07T14:16:17.481Z,98733.28
2023-05-07T14:19:02.715Z,98725.28
2023-05-07T14:21:48.296Z,98725.59
2023-05-07T14:24:38.727Z,98670.47
2023-05-07T14:27:24.570Z,98702.69
2023-05-07T14:30:10.267Z,98712.34
2023-05-07T14:32:55.702Z,98704.97
2023-05-07T14:35:41.521Z,98720.03
2023-05-07T14:38:26.936Z,98710.06
2023-05-07T14:41:12.566Z,98667.03
2023-05-07T14:43:58.064Z,98713.22
2023-05-07T14:46:43.712Z,98713.00
2023-05-07T14:49:29.222Z,98709.06
2023-05-07T14:52:15.343Z,98704.94
2023-05-07T14:55:00.320Z,98658.91
2023-05-07T14:57:45.912Z,98682.78
2023-05-07T15:00:31.190Z,98704.75
2023-05-07T15:03:16.686Z,98660.50
2023-05-07T15:06:04.315Z,98630.78
2023-05-07T15:08:49.556Z,98726.22
2023-05-07T15:11:35.248Z,98722.56
2023-05-07T15:14:23.648Z,98719.22
2023-05-07T15:17:09.207Z,98720.16
2023-05-07T15:19:54.679Z,98661.28
2023-05-07T15:22:39.874Z,98712.59
2023-05-07T15:25:25.193Z,98708.84
2023-05-07T15:28:10.722Z,98717.44
2023-05-07T15:30:56.463Z,98714.47
2023-05-07T15:33:42.066Z,98702.66
2023-05-07T15:36:27.518Z,98726.19
2023-05-07T15:39:13.079Z,98721.75
2023-05-07T15:41:58.335Z,98728.91
2023-05-07T15:44:43.548Z,98725.31
2023-05-07T15:47:29.180Z,98734.06
2023-05-07T15:50:14.605Z,98732.25
2023-05-07T15:53:00.002Z,98736.91
2023-05-07T15:55:45.574Z,98737.09
2023-05-07T15:58:31.930Z,98743.75
2023-05-07T16:01:17.396Z,98733.00
2023-05-07T16:04:02.422Z,98695.25
2023-05-07T16:06:47.604Z,98731.34
2023-05-07T16:09:33.177Z,98719.31
2023-05-07T16:12:18.612Z,98739.00
2023-05-07T16:15:04.240Z,98730.44
2023-05-07T16:17:49.406Z,98731.72
2023-05-07T16:20:34.491Z,98730.50
2023-05-07T16:23:20.035Z,98734.75
2023-05-07T16:26:05.246Z,98738.88
2023-05-07T16:28:50.473Z,98668.56
2023-05-07T16:31:35.845Z,98728.06
2023-05-07T16:34:21.332Z,98715.41
2023-05-07T16:37:07.019Z,98730.81
2023-05-07T16:39:52.482Z,98666.72
2023-05-07T16:42:37.776Z,98733.66
2023-05-07T16:45:23.401Z,98736.13
2023-05-07T16:48:08.744Z,98732.94
2023-05-07T16:50:53.942Z,98735.69
2023-05-07T16:53:39.592Z,98740.59
2023-05-07T16:56:25.978Z,98746.06
2023-05-07T16:59:11.544Z,98740.38
2023-05-07T17:01:58.489Z,98744.38
2023-05-07T17:04:44.319Z,98747.03
2023-05-07T17:07:29.901Z,98752.88
2023-05-07T17:10:15.265Z,98743.03
2023-05-07T17:13:00.318Z,98745.59
2023-05-07T17:15:45.640Z,98746.09
2023-05-07T17:18:30.713Z,98737.22
2023-05-07T17:21:16.018Z,98752.44
2023-05-07T17:24:01.525Z,98750.63
2023-05-07T17:26:50.071Z,98755.75
2023-05-07T17:29:35.327Z,98746.91
2023-05-07T17:32:20.922Z,98754.25
2023-05-07T17:35:06.813Z,98756.53
2023-05-07T17:37:52.563Z,98755.56
2023-05-07T17:40:38.242Z,98762.44
2023-05-07T17:43:23.527Z,98757.41
2023-05-07T17:46:09.527Z,98756.94
2023-05-07T17:48:55.226Z,98764.97
2023-05-07T17:51:52.547Z,98774.63
2023-05-07T17:54:39.571Z,98776.03
2023-05-07T17:57:24.880Z,98750.97
2023-05-07T18:00:11.258Z,98777.66
2023-05-07T18:02:56.808Z,98727.94
2023-05-07T18:05:42.481Z,98772.91
2023-05-07T18:08:27.425Z,98766.63
2023-05-07T18:11:12.849Z,98767.47
2023-05-07T18:13:57.796Z,98777.19
2023-05-07T18:16:43.556Z,98781.06
2023-05-07T18:19:28.914Z,98755.38
2023-05-07T18:22:14.158Z,98747.75
2023-05-07T18:24:59.361Z,98792.13
2023-05-07T18:27:44.809Z,98772.53
2023-05-07T18:30:30.103Z,98788.50
2023-05-07T18:33:15.395Z,98794.13
2023-05-07T18:36:00.663Z,98792.63
2023-05-07T18:38:45.914Z,98806.38
2023-05-07T18:41:31.250Z,98799.72
2023-05-07T18:44:16.961Z,98791.94
2023-05-07T18:47:02.126Z,98794.47
2023-05-07T18:49:47.245Z,98800.81
2023-05-07T18:52:57.064Z,98809.25
2023-05-07T18:55:42.765Z,98765.03
2023-05-07T18:58:28.432Z,98807.44
2023-05-07T19:01:14.181Z,98812.44
2023-05-07T19:03:59.644Z,98814.22
2023-05-07T19:06:44.915Z,98823.00
2023-05-07T19:09:30.141Z,98819.56
2023-05-07T19:12:15.478Z,98823.66
2023-05-07T19:15:00.691Z,98818.75
2023-05-07T19:17:45.884Z,98834.19
2023-05-07T19:20:31.185Z,98824.34
2023-05-07T19:23:16.763Z,98829.94
2023-05-07T19:26:02.508Z,98834.69
2023-05-07T19:28:56.397Z,98773.56
2023-05-07T19:31:46.934Z,98830.00
2023-05-07T19:34:32.573Z,98850.19
2023-05-07T19:37:18.134Z,98843.94
2023-05-07T19:40:04.550Z,98843.16
2023-05-07T19:42:49.637Z,98848.03
2023-05-07T19:45:35.326Z,98853.66
2023-05-07T19:48:20.862Z,98858.94
2023-05-07T19:51:06.224Z,98856.13
2023-05-07T19:53:51.473Z,98792.81
2023-05-07T19:56:36.696Z,98834.72
2023-05-07T19:59:25.671Z,98847.41
2023-05-07T20:02:11.892Z,98864.34
2023-05-07T20:04:57.333Z,98812.53
2023-05-07T20:07:44.411Z,98869.78
2023-05-07T20:10:30.558Z,98866.78
2023-05-07T20:13:15.940Z,98875.00
2023-05-07T20:16:02.296Z,98873.69
2023-05-07T20:18:47.920Z,98877.28
2023-05-07T20:21:33.110Z,98865.75
2023-05-07T20:24:18.822Z,98862.78
2023-05-07T20:27:04.203Z,98879.25
2023-05-07T20:29:49.432Z,98875.28
2023-05-07T20:32:34.788Z,98885.34
2023-05-07T20:35:20.247Z,98880.25
2023-05-07T20:38:05.498Z,98891.34
2023-05-07T20:40:51.254Z,98800.50
2023-05-07T20:43:36.562Z,98889.44
2023-05-07T20:46:22.123Z,98886.47
2023-05-07T20:49:07.514Z,98904.22
2023-05-07T20:51:52.698Z,98912.78
2023-05-07T20:54:37.677Z,98882.44
2023-05-07T20:57:23.260Z,98909.56
2023-05-07T21:00:08.679Z,98909.28
2023-05-07T21:02:54.043Z,98915.41
2023-05-07T21:05:39.537Z,98922.69
2023-05-07T21:08:24.641Z,98830.13
2023-05-07T21:11:09.900Z,98857.00
2023-05-07T21:13:55.160Z,98909.38
2023-05-07T21:16:40.705Z,98915.31
2023-05-07T21:19:26.499Z,98920.94
2023-05-07T21:22:11.893Z,98927.94
2023-05-07T21:24:57.266Z,98930.00
2023-05-07T21:27:42.736Z,98927.09
2023-05-07T21:30:28.201Z,98928.13
2023-05-07T21:33:13.614Z,98928.81
2023-05-07T21:35:58.974Z,98914.19
2023-05-07T21:38:44.127Z,98923.59
2023-05-07T21:41:29.582Z,98924.59
2023-05-07T21:44:14.942Z,98927.72
2023-05-07T21:47:00.297Z,98924.38
2023-05-07T21:49:46.122Z,98861.69
2023-05-07T21:52:31.751Z,98916.63
2023-05-07T21:55:20.334Z,98924.72
2023-05-07T21:58:06.463Z,98922.97
2023-05-07T22:00:51.555Z,98923.56
2023-05-07T22:03:36.696Z,98920.44
2023-05-07T22:06:22.066Z,98924.41
2023-05-07T22:09:07.335Z,98928.38
2023-05-07T22:11:52.875Z,98929.97
2023-05-07T22:14:38.134Z,98938.03
2023-05-07T22:17:23.458Z,98936.34
2023-05-07T22:20:09.321Z,98929.41
2023-05-07T22:22:56.109Z,98931.56
2023-05-07T22:25:41.621Z,98855.81
2023-05-07T22:28:26.839Z,98930.59
2023-05-07T22:31:11.980Z,98931.38
2023-05-07T22:33:57.420Z,98937.00
2023-05-07T22:36:42.840Z,98934.38
2023-05-07T22:39:28.303Z,98934.47
2023-05-07T22:42:13.820Z,98934.97
2023-05-07T22:44:59.122Z,98933.31
2023-05-07T22:47:44.534Z,98931.63
2023-05-07T22:50:29.596Z,98923.91
2023-05-07T22:53:15.070Z,98924.19
2023-05-07T22:56:04.843Z,98931.66
2023-05-07T22:58:50.111Z,98930.03
2023-05-07T23:01:35.344Z,98938.75
2023-05-07T23:04:21.010Z,98904.97
2023-05-07T23:07:06.178Z,98936.00
2023-05-07T23:09:51.696Z,98940.03
2023-05-07T23:12:36.815Z,98938.50
2023-05-07T23:15:22.393Z,98942.78
2023-05-07T23:18:07.769Z,98937.22
2023-05-07T23:20:52.919Z,98936.16
2023-05-07T23:23:38.320Z,98939.19
2023-05-07T23:26:27.088Z,98942.97
2023-05-07T23:29:12.314Z,98940.88
2023-05-07T23:31:57.589Z,98938.63
2023-05-07T23:34:43.037Z,98926.81
2023-05-07T23:37:28.431Z,98930.63
2023-05-07T23:40:14.040Z,98910.03
2023-05-07T23:42:59.837Z,98937.50
2023-05-07T23:45:44.816Z,98933.47
2023-05-07T23:48:30.128Z,98934.66
2023-05-07T23:51:15.602Z,98908.19
2023-05-07T23:54:00.774Z,98935.03
2023-05-07T23:56:46.019Z,98935.75
2023-05-07T23:59:31.773Z,98938.94
